Time;durP1;ratioP1;P1;durP2;ratioP2;P2;SDS_P1;SDS_P2;PMS_P1;PMS_P2;Temp;Humidity;BMP_temperature;BMP_pressure;BME280_temperature;BME280_humidity;BME280_pressure;Samples;Min_cycle;Max_cycle;Signal;HPM_P1;HPM_P2
2022/01/09 00:01:01;;;;;;;0.10;0.10;;;4.70;99.90;;;;;;5031932;28;20041;-73
2022/01/09 00:03:27;;;;;;;0.38;0.38;;;4.60;99.90;;;;;;5031964;28;20071;-72
2022/01/09 00:05:52;;;;;;;0.10;0.10;;;4.70;99.90;;;;;;5032992;28;20063;-73
2022/01/09 00:08:18;;;;;;;0.10;0.10;;;4.60;99.90;;;;;;5033199;28;20427;-72
2022/01/09 00:10:47;;;;;;;0.00;0.00;;;4.60;99.90;;;;;;5032930;28;20103;-73
2022/01/09 00:13:13;;;;;;;0.10;0.10;;;4.60;99.90;;;;;;5031552;28;20061;-71
2022/01/09 00:15:39;;;;;;;0.75;0.73;;;4.60;99.90;;;;;;5014897;28;20445;-72
2022/01/09 00:18:05;;;;;;;0.00;0.00;;;4.50;99.90;;;;;;5032728;28;20029;-73
2022/01/09 00:20:31;;;;;;;0.10;0.10;;;4.50;99.90;;;;;;5031489;28;20033;-73
2022/01/09 00:22:57;;;;;;;0.17;0.17;;;4.60;99.90;;;;;;5032874;28;20033;-73
2022/01/09 00:25:24;;;;;;;0.10;0.10;;;4.50;99.90;;;;;;5032588;28;20120;-73
2022/01/09 00:27:51;;;;;;;0.00;0.00;;;4.50;99.90;;;;;;5032616;28;20033;-73
2022/01/09 00:30:21;;;;;;;0.00;0.00;;;4.40;99.90;;;;;;5031696;28;20025;-72
2022/01/09 00:32:47;;;;;;;0.63;0.63;;;4.40;99.90;;;;;;5032532;28;20120;-72
2022/01/09 00:35:15;;;;;;;0.00;0.00;;;4.40;99.90;;;;;;5032441;28;20044;-72
2022/01/09 00:37:41;;;;;;;0.65;0.65;;;4.40;99.90;;;;;;5031185;28;20168;-72
2022/01/09 00:40:11;;;;;;;0.10;0.10;;;4.40;99.90;;;;;;5031341;28;20030;-72
2022/01/09 00:42:38;;;;;;;0.00;0.00;;;4.50;99.90;;;;;;5032525;28;20045;-73
2022/01/09 00:45:07;;;;;;;0.15;0.15;;;4.50;99.90;;;;;;5031764;28;20048;-73
2022/01/09 00:47:33;;;;;;;0.10;0.10;;;4.50;99.90;;;;;;5030941;28;20125;-71
2022/01/09 00:50:03;;;;;;;0.05;0.05;;;4.50;99.90;;;;;;5032100;28;20116;-71
2022/01/09 00:52:29;;;;;;;1.20;0.70;;;4.50;99.90;;;;;;5031213;28;20038;-72
2022/01/09 00:54:57;;;;;;;0.00;0.00;;;4.50;99.90;;;;;;5030663;28;20026;-73
2022/01/09 00:57:23;;;;;;;0.10;0.10;;;4.60;99.90;;;;;;5031886;28;20525;-72
2022/01/09 00:59:52;;;;;;;0.00;0.00;;;4.60;99.90;;;;;;5030704;28;20036;-72
2022/01/09 01:02:18;;;;;;;0.10;0.10;;;4.50;99.90;;;;;;5031804;28;20739;-73
2022/01/09 01:04:45;;;;;;;0.52;0.52;;;4.60;99.90;;;;;;5030931;28;20033;-72
2022/01/09 01:07:11;;;;;;;0.08;0.08;;;4.50;99.90;;;;;;5030798;28;20029;-72
2022/01/09 01:09:37;;;;;;;0.10;0.10;;;4.50;99.90;;;;;;5031882;28;20026;-73
2022/01/09 01:12:03;;;;;;;0.00;0.00;;;4.60;99.90;;;;;;5030845;28;20040;-73
2022/01/09 01:14:31;;;;;;;0.10;0.10;;;4.50;99.90;;;;;;5031815;28;20473;-73
2022/01/09 01:16:57;;;;;;;0.10;0.10;;;4.50;99.90;;;;;;5031733;28;20501;-73
2022/01/09 01:19:23;;;;;;;0.00;0.00;;;4.50;99.90;;;;;;5031015;28;20030;-73
2022/01/09 01:21:49;;;;;;;0.00;0.00;;;4.50;99.90;;;;;;5030350;28;20065;-73
2022/01/09 01:24:17;;;;;;;0.05;0.05;;;4.60;99.90;;;;;;5030932;28;20489;-73
2022/01/09 01:26:44;;;;;;;0.90;0.65;;;4.60;99.90;;;;;;5030779;28;20049;-73
2022/01/09 01:29:10;;;;;;;0.10;0.10;;;4.60;99.90;;;;;;5031932;28;20017;-73
2022/01/09 01:31:36;;;;;;;0.08;0.08;;;4.60;99.90;;;;;;5030414;28;20512;-73
2022/01/09 01:34:02;;;;;;;0.10;0.10;;;4.70;99.90;;;;;;5031641;28;20061;-73
2022/01/09 01:36:28;;;;;;;0.00;0.00;;;4.70;99.90;;;;;;5031448;28;20540;-73
2022/01/09 01:38:54;;;;;;;0.10;0.10;;;4.70;99.90;;;;;;5030135;28;20037;-73
2022/01/09 01:41:19;;;;;;;0.00;0.00;;;4.70;99.90;;;;;;5031640;28;20038;-73
2022/01/09 01:43:46;;;;;;;0.10;0.10;;;4.60;99.90;;;;;;5030165;28;20371;-73
2022/01/09 01:46:12;;;;;;;0.10;0.10;;;4.60;99.90;;;;;;5031816;28;20836;-73
2022/01/09 01:48:38;;;;;;;0.08;0.08;;;4.60;99.90;;;;;;5030188;28;20128;-73
2022/01/09 01:51:04;;;;;;;0.00;0.00;;;4.70;99.90;;;;;;5029945;28;20160;-73
2022/01/09 01:53:30;;;;;;;0.10;0.10;;;4.60;99.90;;;;;;5031541;28;20025;-73
2022/01/09 01:55:59;;;;;;;0.00;0.00;;;4.60;99.90;;;;;;5030164;28;20043;-73
2022/01/09 01:58:26;;;;;;;0.00;0.00;;;4.60;99.90;;;;;;5035684;28;20029;-73
2022/01/09 02:00:52;;;;;;;1.05;1.05;;;4.60;99.90;;;;;;5033911;28;20109;-72
2022/01/09 02:03:19;;;;;;;0.10;0.10;;;4.70;99.90;;;;;;5034086;28;20037;-72
2022/01/09 02:05:46;;;;;;;0.00;0.00;;;4.80;99.90;;;;;;5033960;28;20031;-72
2022/01/09 02:08:13;;;;;;;0.10;0.10;;;4.80;99.90;;;;;;5034246;28;20474;-72
2022/01/09 02:10:48;;;;;;;0.00;0.00;;;4.90;99.90;;;;;;5035010;28;20034;-72
2022/01/09 02:13:16;;;;;;;0.25;0.25;;;4.90;99.90;;;;;;5033937;28;20037;-72
2022/01/09 02:15:45;;;;;;;0.00;0.00;;;5.10;99.90;;;;;;5033894;28;20038;-72
2022/01/09 02:18:20;;;;;;;0.10;0.10;;;5.10;99.90;;;;;;5034787;28;20395;-72
2022/01/09 02:20:48;;;;;;;0.10;0.10;;;5.20;99.90;;;;;;5035050;28;20501;-72
2022/01/09 02:23:16;;;;;;;0.03;0.03;;;5.30;99.90;;;;;;5034952;28;20064;-72
2022/01/09 02:25:44;;;;;;;0.10;0.10;;;5.50;99.90;;;;;;5034835;28;20095;-72
2022/01/09 02:28:12;;;;;;;0.00;0.00;;;5.50;99.90;;;;;;5033609;28;20501;-72
2022/01/09 02:30:39;;;;;;;0.10;0.10;;;5.60;99.90;;;;;;5034816;28;20029;-72
2022/01/09 02:33:09;;;;;;;0.10;0.10;;;5.70;99.90;;;;;;5033747;28;20040;-72
2022/01/09 02:35:36;;;;;;;0.00;0.00;;;5.80;99.90;;;;;;5033608;28;20120;-72
2022/01/09 02:38:06;;;;;;;0.00;0.00;;;5.80;99.90;;;;;;5033289;28;20140;-72
2022/01/09 02:40:33;;;;;;;0.00;0.00;;;5.90;99.90;;;;;;5016995;28;20501;-73
2022/01/09 02:42:59;;;;;;;0.10;0.10;;;5.90;99.90;;;;;;5016899;28;20041;-73
2022/01/09 02:45:27;;;;;;;0.10;0.10;;;5.90;99.90;;;;;;5033398;28;20033;-73
2022/01/09 02:47:55;;;;;;;0.00;0.00;;;5.90;99.90;;;;;;5034051;28;20045;-72
2022/01/09 02:52:58;;;;;;;0.10;0.10;;;5.90;99.90;;;;;;5033171;28;20030;-73
2022/01/09 02:55:26;;;;;;;0.00;0.00;;;5.90;99.90;;;;;;5017697;28;20537;-73
2022/01/09 02:57:56;;;;;;;0.00;0.00;;;5.90;99.90;;;;;;5016778;28;20052;-73
2022/01/09 03:00:33;;;;;;;0.10;0.10;;;5.90;99.90;;;;;;5034333;28;20534;-72
2022/01/09 03:03:00;;;;;;;0.03;0.03;;;5.90;99.90;;;;;;5032947;28;20486;-72
2022/01/09 03:05:29;;;;;;;0.00;0.00;;;5.90;99.90;;;;;;5033306;28;20076;-73
2022/01/09 03:07:55;;;;;;;0.10;0.10;;;5.90;99.90;;;;;;5032266;28;20059;-72
2022/01/09 03:10:22;;;;;;;0.03;0.03;;;5.90;99.90;;;;;;5033978;28;20494;-73
2022/01/09 03:12:51;;;;;;;0.00;0.00;;;5.90;99.90;;;;;;5034188;28;20037;-72
2022/01/09 03:15:18;;;;;;;0.10;0.10;;;5.90;99.90;;;;;;5032884;28;20088;-73
2022/01/09 03:17:44;;;;;;;0.00;0.00;;;5.90;99.90;;;;;;5032734;28;20041;-73
2022/01/09 03:20:18;;;;;;;0.10;0.10;;;5.90;99.90;;;;;;5033697;28;20393;-73
2022/01/09 03:22:45;;;;;;;0.00;0.00;;;5.90;99.90;;;;;;5034082;28;20041;-73
2022/01/09 03:25:12;;;;;;;0.10;0.10;;;6.00;99.90;;;;;;5033923;28;20034;-73
2022/01/09 03:27:40;;;;;;;0.10;0.10;;;6.00;99.90;;;;;;5034044;28;20079;-73
2022/01/09 03:30:09;;;;;;;0.00;0.00;;;5.90;99.90;;;;;;5033650;28;20065;-72
2022/01/09 03:32:39;;;;;;;0.10;0.10;;;6.00;99.90;;;;;;5033638;28;20040;-73
2022/01/09 03:35:08;;;;;;;0.00;0.00;;;6.00;99.90;;;;;;5032432;28;20108;-72
2022/01/09 03:37:34;;;;;;;0.15;0.15;;;6.00;99.90;;;;;;5032354;28;20215;-72
2022/01/09 03:40:00;;;;;;;0.00;0.00;;;6.00;99.90;;;;;;5016097;28;20040;-72
2022/01/09 03:42:26;;;;;;;0.00;0.00;;;5.90;99.90;;;;;;5033691;28;20037;-72
2022/01/09 03:44:51;;;;;;;0.10;0.10;;;6.00;99.90;;;;;;5032050;28;20067;-72
2022/01/09 03:47:17;;;;;;;2.63;2.10;;;6.00;99.90;;;;;;5033257;28;20061;-72
2022/01/09 03:49:43;;;;;;;0.10;0.10;;;6.00;99.90;;;;;;5033500;28;20132;-72
2022/01/09 03:52:08;;;;;;;0.00;0.00;;;6.00;99.90;;;;;;5033466;28;20442;-72
2022/01/09 03:54:37;;;;;;;0.00;0.00;;;6.10;99.90;;;;;;5031992;28;20033;-72
2022/01/09 03:57:03;;;;;;;0.52;0.52;;;6.20;99.90;;;;;;5033040;28;20025;-72
2022/01/09 03:59:29;;;;;;;0.00;0.00;;;6.20;99.90;;;;;;5033572;28;20068;-72
2022/01/09 04:01:55;;;;;;;0.00;0.00;;;6.30;99.90;;;;;;5033184;28;20076;-72
2022/01/09 04:04:21;;;;;;;0.00;0.00;;;6.20;99.90;;;;;;5033500;28;20060;-72
2022/01/09 04:06:49;;;;;;;0.00;0.00;;;6.20;99.90;;;;;;5033024;28;20482;-72
2022/01/09 04:12:03;;;;;;;0.00;0.00;;;6.40;99.90;;;;;;5032031;28;20051;-73
2022/01/09 04:14:31;;;;;;;0.00;0.00;;;6.40;99.90;;;;;;5033143;28;20116;-72
2022/01/09 04:16:58;;;;;;;0.10;0.10;;;6.40;99.90;;;;;;5031549;28;20033;-72
2022/01/09 04:19:23;;;;;;;0.00;0.00;;;6.40;99.90;;;;;;5031924;28;20056;-72
2022/01/09 04:21:49;;;;;;;0.00;0.00;;;6.50;99.90;;;;;;5031486;28;20470;-72
2022/01/09 04:24:15;;;;;;;0.00;0.00;;;6.50;99.90;;;;;;5033069;28;20044;-72
2022/01/09 04:26:40;;;;;;;0.00;0.00;;;6.40;99.90;;;;;;5032929;28;20478;-72
2022/01/09 04:29:06;;;;;;;0.10;0.10;;;6.40;99.90;;;;;;5032557;28;20037;-72
2022/01/09 04:31:32;;;;;;;0.00;0.00;;;6.30;99.90;;;;;;5032553;28;20513;-72
2022/01/09 04:33:58;;;;;;;0.10;0.10;;;6.30;99.90;;;;;;5031368;28;20144;-73
2022/01/09 04:36:24;;;;;;;0.10;0.10;;;6.20;99.90;;;;;;5032440;28;20120;-73
2022/01/09 04:38:51;;;;;;;0.00;0.00;;;6.20;99.90;;;;;;5014803;28;20478;-73
2022/01/09 04:41:16;;;;;;;0.00;0.00;;;6.10;99.90;;;;;;5031314;28;20128;-72
2022/01/09 04:43:44;;;;;;;0.10;0.10;;;6.10;99.90;;;;;;5015060;28;20124;-72
2022/01/09 04:46:10;;;;;;;0.15;0.15;;;6.10;99.90;;;;;;5032153;28;20091;-72
2022/01/09 04:48:36;;;;;;;0.10;0.10;;;6.00;99.90;;;;;;5030883;28;20132;-72
2022/01/09 04:51:02;;;;;;;0.10;0.10;;;5.90;99.90;;;;;;5032125;28;20105;-73
2022/01/09 04:53:28;;;;;;;0.10;0.10;;;5.80;99.90;;;;;;5032259;28;20041;-73
2022/01/09 04:55:53;;;;;;;0.03;0.03;;;5.70;99.90;;;;;;5030769;28;20049;-73
2022/01/09 04:58:22;;;;;;;0.00;0.00;;;5.60;99.90;;;;;;5032061;28;20399;-73
2022/01/09 05:00:48;;;;;;;0.00;0.00;;;5.50;99.90;;;;;;5032112;28;20030;-73
2022/01/09 05:03:15;;;;;;;0.10;0.10;;;5.40;99.90;;;;;;5032091;28;20552;-73
2022/01/09 05:05:41;;;;;;;0.00;0.00;;;5.30;99.90;;;;;;5031931;28;20079;-73
2022/01/09 05:08:07;;;;;;;0.00;0.00;;;5.20;99.90;;;;;;5030823;28;20085;-73
2022/01/09 05:10:32;;;;;;;0.08;0.08;;;5.20;99.90;;;;;;5030872;28;20493;-72
2022/01/09 05:12:58;;;;;;;0.00;0.00;;;5.20;99.90;;;;;;5031869;28;20485;-73
2022/01/09 05:15:24;;;;;;;0.00;0.00;;;5.20;99.90;;;;;;5031760;28;20042;-73
2022/01/09 05:17:53;;;;;;;0.00;0.00;;;5.10;99.90;;;;;;5031793;28;20029;-72
2022/01/09 05:20:19;;;;;;;0.10;0.10;;;5.10;99.90;;;;;;5032004;28;20116;-73
2022/01/09 05:22:45;;;;;;;0.10;0.10;;;5.10;99.90;;;;;;5031778;28;20049;-73
2022/01/09 05:25:11;;;;;;;0.10;0.10;;;5.20;99.90;;;;;;5031580;28;20025;-73
2022/01/09 05:27:37;;;;;;;0.00;0.00;;;5.10;99.90;;;;;;5014172;28;20037;-73
2022/01/09 05:30:05;;;;;;;0.00;0.00;;;5.10;99.90;;;;;;5013985;28;20624;-73
2022/01/09 05:32:31;;;;;;;0.00;0.00;;;5.00;99.90;;;;;;5014224;28;20637;-73
2022/01/09 05:34:57;;;;;;;0.00;0.00;;;5.10;99.90;;;;;;5030698;28;20037;-73
2022/01/09 05:37:22;;;;;;;0.10;0.10;;;5.00;99.90;;;;;;5014122;28;20518;-73
2022/01/09 05:39:48;;;;;;;0.00;0.00;;;5.00;99.90;;;;;;5031550;28;20120;-73
2022/01/09 05:42:14;;;;;;;0.00;0.00;;;5.10;99.90;;;;;;5031329;28;20090;-73
2022/01/09 05:44:40;;;;;;;0.00;0.00;;;5.00;99.90;;;;;;5031722;28;20040;-72
2022/01/09 05:47:06;;;;;;;0.00;0.00;;;5.10;99.90;;;;;;5030322;28;20049;-73
2022/01/09 05:49:32;;;;;;;0.08;0.08;;;5.00;99.90;;;;;;5030521;28;20025;-72
2022/01/09 05:51:58;;;;;;;0.10;0.10;;;5.10;99.90;;;;;;5030270;28;20783;-73
2022/01/09 05:54:24;;;;;;;0.00;0.00;;;5.10;99.90;;;;;;5031517;28;20076;-73
2022/01/09 05:56:51;;;;;;;0.10;0.10;;;5.10;99.90;;;;;;5030170;28;20044;-73
2022/01/09 05:59:18;;;;;;;0.00;0.00;;;5.20;99.90;;;;;;5031454;28;20025;-73
2022/01/09 06:01:45;;;;;;;0.00;0.00;;;5.20;99.90;;;;;;5031288;28;20069;-73
2022/01/09 06:04:10;;;;;;;0.10;0.10;;;5.20;99.90;;;;;;5031267;28;20033;-73
2022/01/09 06:06:36;;;;;;;0.00;0.00;;;5.20;99.90;;;;;;5031331;28;20042;-73
2022/01/09 06:09:02;;;;;;;0.00;0.00;;;5.20;99.90;;;;;;5030338;28;20520;-73
2022/01/09 06:11:28;;;;;;;0.00;0.00;;;5.30;99.90;;;;;;5031589;28;20040;-73
2022/01/09 06:13:54;;;;;;;0.10;0.10;;;5.40;99.90;;;;;;5030059;28;20034;-73
2022/01/09 06:16:19;;;;;;;0.00;0.00;;;5.40;99.90;;;;;;5031293;28;20080;-73
2022/01/09 06:18:45;;;;;;;0.00;0.00;;;5.30;99.90;;;;;;5030273;28;20033;-73
2022/01/09 06:21:11;;;;;;;0.00;0.00;;;5.30;99.90;;;;;;5029918;28;20042;-73
2022/01/09 06:23:37;;;;;;;0.00;0.00;;;5.40;99.90;;;;;;5031314;28;20561;-73
2022/01/09 06:26:02;;;;;;;0.10;0.10;;;5.50;99.90;;;;;;5031045;28;20112;-73
2022/01/09 06:28:28;;;;;;;0.00;0.00;;;5.50;99.90;;;;;;5030047;28;20037;-73
2022/01/09 06:30:54;;;;;;;0.10;0.10;;;5.50;99.90;;;;;;5029239;28;20037;-73
2022/01/09 06:33:20;;;;;;;0.00;0.00;;;5.50;99.90;;;;;;5029108;28;20073;-74
2022/01/09 06:35:46;;;;;;;0.10;0.10;;;5.50;99.90;;;;;;5029895;28;20030;-74
2022/01/09 06:38:12;;;;;;;0.00;0.00;;;5.60;99.90;;;;;;5030587;28;20045;-74
2022/01/09 06:40:38;;;;;;;0.38;0.38;;;5.60;99.90;;;;;;5030410;28;20091;-74
2022/01/09 06:43:04;;;;;;;0.10;0.10;;;5.50;99.90;;;;;;5031729;28;20140;-74
2022/01/09 06:45:31;;;;;;;0.05;0.05;;;5.60;99.90;;;;;;5033213;28;20041;-75
2022/01/09 06:47:57;;;;;;;0.10;0.10;;;5.60;99.90;;;;;;5016691;28;20053;-74
2022/01/09 06:50:26;;;;;;;0.00;0.00;;;5.60;99.90;;;;;;5033397;28;20037;-73
2022/01/09 06:52:52;;;;;;;0.10;0.10;;;5.70;99.90;;;;;;5033382;28;20168;-73
2022/01/09 06:55:18;;;;;;;0.00;0.00;;;5.60;99.90;;;;;;5033227;28;20482;-74
2022/01/09 06:57:44;;;;;;;0.03;0.03;;;5.70;99.90;;;;;;5034527;28;20466;-73
2022/01/09 07:00:13;;;;;;;0.00;0.00;;;5.70;99.90;;;;;;5034345;28;20040;-77
2022/01/09 07:02:39;;;;;;;0.10;0.10;;;5.70;99.90;;;;;;5033197;28;20525;-77
2022/01/09 07:05:06;;;;;;;0.00;0.00;;;5.80;99.90;;;;;;5032813;28;20038;-73
2022/01/09 07:07:32;;;;;;;0.10;0.10;;;5.80;99.90;;;;;;5033962;28;20036;-76
2022/01/09 07:09:58;;;;;;;0.35;0.25;;;5.80;99.90;;;;;;5034337;28;20116;-80
2022/01/09 07:12:24;;;;;;;0.00;0.00;;;5.80;99.90;;;;;;5016619;28;20048;-80
2022/01/09 07:14:49;;;;;;;0.00;0.00;;;5.80;99.90;;;;;;5034293;28;20025;-79
2022/01/09 07:17:15;;;;;;;0.22;0.22;;;5.80;99.90;;;;;;5033567;28;20044;-71
2022/01/09 07:19:41;;;;;;;0.45;0.45;;;5.70;99.90;;;;;;5033918;28;20073;-73
2022/01/09 07:22:07;;;;;;;0.00;0.00;;;5.80;99.90;;;;;;5034199;28;20053;-76
2022/01/09 07:24:34;;;;;;;0.00;0.00;;;5.70;99.90;;;;;;5032751;28;20417;-78
2022/01/09 07:27:00;;;;;;;0.00;0.00;;;5.80;99.90;;;;;;5034008;28;20042;-76
2022/01/09 07:29:26;;;;;;;0.13;0.13;;;5.80;99.90;;;;;;5034056;28;20051;-76
2022/01/09 07:31:52;;;;;;;0.00;0.00;;;5.80;99.90;;;;;;5033787;28;20040;-77
2022/01/09 07:34:19;;;;;;;0.10;0.10;;;5.80;99.90;;;;;;5032834;28;20029;-76
2022/01/09 07:36:44;;;;;;;0.00;0.00;;;5.80;99.90;;;;;;5032770;28;20057;-76
2022/01/09 07:39:10;;;;;;;0.00;0.00;;;5.90;99.90;;;;;;5032094;28;20071;-77
2022/01/09 07:41:36;;;;;;;0.10;0.10;;;5.80;99.90;;;;;;5033921;28;20030;-77
2022/01/09 07:44:02;;;;;;;0.00;0.00;;;5.80;99.90;;;;;;5033313;28;20446;-77
2022/01/09 07:46:28;;;;;;;0.00;0.00;;;5.80;99.90;;;;;;5031511;28;20060;-77
2022/01/09 07:48:54;;;;;;;0.00;0.00;;;5.80;99.90;;;;;;5033244;28;20057;-77
2022/01/09 07:51:20;;;;;;;0.05;0.05;;;5.80;99.90;;;;;;5032218;28;20164;-77
2022/01/09 07:53:46;;;;;;;0.10;0.10;;;5.80;99.90;;;;;;5031101;28;20036;-78
2022/01/09 07:56:12;;;;;;;0.00;0.00;;;5.80;99.90;;;;;;5033242;28;20477;-74
2022/01/09 07:58:37;;;;;;;0.10;0.10;;;5.80;99.90;;;;;;5032197;28;20037;-70
2022/01/09 08:01:03;;;;;;;0.10;0.10;;;5.70;99.90;;;;;;5024636;28;20589;-70
2022/01/09 08:03:30;;;;;;;0.00;0.00;;;5.70;99.90;;;;;;5022386;28;20732;-74
2022/01/09 08:05:56;;;;;;;0.00;0.00;;;5.70;99.90;;;;;;5015604;28;20030;-74
2022/01/09 08:08:22;;;;;;;0.05;0.05;;;5.70;99.90;;;;;;5031747;28;20163;-77
2022/01/09 08:10:47;;;;;;;0.00;0.00;;;5.70;99.90;;;;;;5019444;28;20034;-75
2022/01/09 08:13:13;;;;;;;0.75;0.75;;;5.60;99.90;;;;;;5013132;28;20052;-75
2022/01/09 08:15:39;;;;;;;0.68;0.68;;;5.60;99.90;;;;;;5011948;28;20034;-74
2022/01/09 08:18:05;;;;;;;0.10;0.10;;;5.60;99.90;;;;;;5011652;28;20044;-73
2022/01/09 08:20:31;;;;;;;0.00;0.00;;;5.60;99.90;;;;;;5012121;28;20390;-74
2022/01/09 08:22:58;;;;;;;0.05;0.05;;;5.50;99.90;;;;;;5013130;28;20041;-72
2022/01/09 08:25:23;;;;;;;0.10;0.10;;;5.50;99.90;;;;;;5012710;28;20034;-71
2022/01/09 08:27:49;;;;;;;0.10;0.10;;;5.50;99.90;;;;;;5012838;28;20037;-74
2022/01/09 08:30:18;;;;;;;0.10;0.10;;;5.50;99.90;;;;;;5012544;28;20040;-75
2022/01/09 08:32:44;;;;;;;0.80;0.80;;;5.40;99.90;;;;;;5013087;28;20041;-74
2022/01/09 08:35:11;;;;;;;0.00;0.00;;;5.40;99.90;;;;;;5012762;28;20065;-72
2022/01/09 08:37:41;;;;;;;0.08;0.08;;;5.40;99.90;;;;;;5012627;28;20055;-67
2022/01/09 08:40:20;;;;;;;0.00;0.00;;;5.40;99.90;;;;;;5012094;28;20019;-73
2022/01/09 08:42:47;;;;;;;0.10;0.10;;;5.30;99.90;;;;;;5011595;28;20033;-72
2022/01/09 08:45:14;;;;;;;0.10;0.10;;;5.30;99.90;;;;;;5028392;28;20037;-72
2022/01/09 08:47:41;;;;;;;0.00;0.00;;;5.30;99.90;;;;;;5030918;28;20410;-71
2022/01/09 08:50:09;;;;;;;11.40;4.88;;;5.40;99.90;;;;;;5032316;28;20026;-72
2022/01/09 08:52:35;;;;;;;2.22;2.13;;;5.40;99.90;;;;;;5024431;28;20049;-70
2022/01/09 08:55:03;;;;;;;0.00;0.00;;;5.40;99.90;;;;;;5012402;28;20033;-72
2022/01/09 08:57:29;;;;;;;0.00;0.00;;;5.40;99.90;;;;;;5029181;28;20131;-72
2022/01/09 08:59:54;;;;;;;0.10;0.10;;;5.40;99.90;;;;;;5032233;28;20065;-73
2022/01/09 09:02:20;;;;;;;0.10;0.10;;;5.40;99.90;;;;;;5014174;28;20026;-71
2022/01/09 09:04:46;;;;;;;0.00;0.00;;;5.40;99.90;;;;;;5012130;28;20037;-71
2022/01/09 09:07:14;;;;;;;0.10;0.10;;;5.50;99.90;;;;;;5012335;28;20050;-71
2022/01/09 09:09:40;;;;;;;0.10;0.10;;;5.50;99.90;;;;;;4994661;28;20076;-71
2022/01/09 09:12:06;;;;;;;0.20;0.20;;;5.50;99.90;;;;;;5012144;28;20038;-71
2022/01/09 09:14:32;;;;;;;0.00;0.00;;;5.50;99.90;;;;;;5012389;28;20037;-70
2022/01/09 09:16:58;;;;;;;0.10;0.10;;;5.50;99.90;;;;;;5021428;28;20041;-72
2022/01/09 09:19:24;;;;;;;0.10;0.10;;;5.60;99.90;;;;;;5016563;28;21433;-71
2022/01/09 09:21:50;;;;;;;4.40;3.20;;;5.50;99.90;;;;;;5021506;28;20042;-71
2022/01/09 09:24:17;;;;;;;0.93;0.93;;;5.50;99.90;;;;;;5014053;28;20026;-72
2022/01/09 09:26:43;;;;;;;1.02;1.02;;;5.60;99.90;;;;;;5018436;28;20394;-72
2022/01/09 09:29:09;;;;;;;0.00;0.00;;;5.70;99.90;;;;;;5030449;28;20041;-71
2022/01/09 09:31:35;;;;;;;0.03;0.03;;;5.60;99.90;;;;;;5021241;28;20026;-72
2022/01/09 09:34:01;;;;;;;0.05;0.05;;;5.70;99.90;;;;;;5012153;28;20088;-71
2022/01/09 09:36:27;;;;;;;0.00;0.00;;;5.60;99.90;;;;;;5010756;28;20030;-72
2022/01/09 09:38:53;;;;;;;0.10;0.10;;;5.70;99.90;;;;;;5012058;28;20144;-72
2022/01/09 09:41:24;;;;;;;0.17;0.17;;;5.70;99.90;;;;;;5012265;28;20038;-72
2022/01/09 09:43:51;;;;;;;;;;;5.70;99.90;;;;;;5012252;28;20045;-73
2022/01/09 09:46:20;;;;;;;0.10;0.10;;;5.80;99.90;;;;;;5021786;28;19917;-72
2022/01/09 09:48:47;;;;;;;0.10;0.10;;;5.80;99.90;;;;;;5031501;28;20136;-73
2022/01/09 09:51:12;;;;;;;0.10;0.10;;;5.80;99.90;;;;;;5030230;28;20057;-72
2022/01/09 09:53:39;;;;;;;0.00;0.00;;;5.80;99.90;;;;;;5030379;28;20072;-73
2022/01/09 09:56:05;;;;;;;0.10;0.10;;;5.80;99.90;;;;;;5031546;28;20042;-71
2022/01/09 09:58:30;;;;;;;0.10;0.10;;;5.80;99.90;;;;;;5031337;28;20029;-73
2022/01/09 10:00:57;;;;;;;4.13;2.65;;;5.90;99.90;;;;;;5031217;28;20030;-75
2022/01/09 10:03:33;;;;;;;4.47;2.85;;;5.90;99.90;;;;;;5026116;28;20030;-72
2022/01/09 10:06:01;;;;;;;0.00;0.00;;;6.10;99.90;;;;;;5010619;28;20082;-72
2022/01/09 10:08:39;;;;;;;0.10;0.10;;;6.10;99.90;;;;;;5010444;28;20037;-71
2022/01/09 10:11:17;;;;;;;0.00;0.00;;;6.10;99.90;;;;;;5026832;28;20160;-71
2022/01/09 10:13:44;;;;;;;0.10;0.10;;;6.10;99.90;;;;;;5010645;28;20113;-72
2022/01/09 10:16:16;;;;;;;0.22;0.22;;;6.20;99.90;;;;;;5010213;28;20494;-72
2022/01/09 10:18:53;;;;;;;;;;;6.30;99.90;;;;;;5015232;28;20133;-71
2022/01/09 10:21:20;;;;;;;0.50;0.50;;;6.20;99.90;;;;;;5014557;28;19967;-71
2022/01/09 10:24:19;;;;;;;0.10;0.10;;;6.30;99.90;;;;;;5014510;28;20038;-71
2022/01/09 10:26:50;;;;;;;0.00;0.00;;;6.40;99.90;;;;;;5014010;28;20050;-70
2022/01/09 10:29:20;;;;;;;0.10;0.10;;;6.50;99.90;;;;;;5014240;28;20034;-70
2022/01/09 10:31:50;;;;;;;0.00;0.00;;;6.60;99.90;;;;;;5013798;28;20390;-70
2022/01/09 10:34:17;;;;;;;0.00;0.00;;;6.70;99.90;;;;;;4997817;28;20061;-70
2022/01/09 10:36:51;;;;;;;0.10;0.10;;;6.70;99.90;;;;;;5015312;28;20479;-70
2022/01/09 10:39:27;;;;;;;0.03;0.03;;;6.70;99.90;;;;;;5013710;28;20491;-71
2022/01/09 10:42:04;;;;;;;0.00;0.00;;;6.80;99.90;;;;;;5014114;28;20041;-70
2022/01/09 10:44:34;;;;;;;0.00;0.00;;;6.80;99.90;;;;;;4998068;28;20053;-71
2022/01/09 10:47:14;;;;;;;0.00;0.00;;;6.80;99.90;;;;;;5013894;28;20030;-71
2022/01/09 10:49:42;;;;;;;0.10;0.10;;;6.90;99.90;;;;;;5014027;28;20372;-71
2022/01/09 10:52:31;;;;;;;0.00;0.00;;;6.90;99.90;;;;;;5014660;28;20121;-71
2022/01/09 10:55:03;;;;;;;0.10;0.10;;;6.80;99.90;;;;;;5014942;28;20053;-71
2022/01/09 10:57:32;;;;;;;0.00;0.00;;;6.80;99.90;;;;;;5013342;28;20046;-71
2022/01/09 11:00:15;;;;;;;0.00;0.00;;;7.00;99.90;;;;;;5013490;28;20040;-71
2022/01/09 11:02:45;;;;;;;0.00;0.00;;;7.10;99.90;;;;;;5013743;28;20033;-71
2022/01/09 11:05:11;;;;;;;0.00;0.00;;;7.10;99.90;;;;;;5013317;28;20125;-71
2022/01/09 11:07:38;;;;;;;1.02;0.70;;;6.90;99.90;;;;;;5014655;28;20037;-71
2022/01/09 11:10:07;;;;;;;0.00;0.00;;;6.80;99.90;;;;;;5013775;28;20188;-71
2022/01/09 11:12:42;;;;;;;0.70;0.70;;;6.80;99.90;;;;;;5014740;28;20444;-71
2022/01/09 11:15:12;;;;;;;0.00;0.00;;;7.00;99.90;;;;;;5013781;28;20034;-71
2022/01/09 11:17:39;;;;;;;0.47;0.47;;;7.10;99.90;;;;;;5012884;28;20120;-72
2022/01/09 11:20:06;;;;;;;0.30;0.30;;;7.10;99.90;;;;;;5013208;28;20076;-71
2022/01/09 11:22:32;;;;;;;0.00;0.00;;;7.30;99.90;;;;;;5014499;28;20073;-72
2022/01/09 11:25:37;;;;;;;0.10;0.10;;;7.30;99.90;;;;;;5013070;28;20566;-72
2022/01/09 11:28:22;;;;;;;0.00;0.00;;;7.30;99.90;;;;;;5005250;28;20046;-71
2022/01/09 11:31:05;;;;;;;0.00;0.00;;;7.40;99.90;;;;;;5013093;28;20048;-70
2022/01/09 11:33:50;;;;;;;0.00;0.00;;;7.80;99.90;;;;;;5012795;28;20034;-71
2022/01/09 11:36:27;;;;;;;0.00;0.00;;;8.30;99.90;;;;;;5029344;28;20030;-71
2022/01/09 11:39:12;;;;;;;0.00;0.00;;;9.70;99.90;;;;;;5013057;28;20038;-71
2022/01/09 11:41:41;;;;;;;0.00;0.00;;;9.70;99.90;;;;;;5013227;28;20034;-72
2022/01/09 11:44:11;;;;;;;0.00;0.00;;;10.10;99.90;;;;;;4996549;28;20030;-72
2022/01/09 11:47:03;;;;;;;0.00;0.00;;;8.90;99.90;;;;;;4996508;28;20682;-71
2022/01/09 11:49:52;;;;;;;0.00;0.00;;;8.70;99.90;;;;;;5012361;28;20129;-71
2022/01/09 11:52:19;;;;;;;0.00;0.00;;;8.20;99.90;;;;;;5012770;28;20383;-71
2022/01/09 11:54:59;;;;;;;0.00;0.00;;;8.10;99.90;;;;;;5012672;28;20034;-71
2022/01/09 11:57:47;;;;;;;0.00;0.00;;;8.00;99.90;;;;;;5023474;28;20068;-71
2022/01/09 12:00:35;;;;;;;0.10;0.10;;;8.00;99.90;;;;;;5012375;28;20026;-71
2022/01/09 12:03:27;;;;;;;0.00;0.00;;;8.30;99.90;;;;;;5012553;28;20030;-70
2022/01/09 12:06:08;;;;;;;1.88;0.93;;;9.00;99.90;;;;;;5021395;28;20177;-72
2022/01/09 12:09:00;;;;;;;0.00;0.00;;;8.30;99.90;;;;;;5015504;28;20042;-73
2022/01/09 12:12:11;;;;;;;6.82;0.85;;;8.30;99.90;;;;;;5032043;28;20037;-67
2022/01/09 12:14:53;;;;;;;1.15;1.05;;;8.10;99.90;;;;;;5018030;28;20048;-67
2022/01/09 12:17:22;;;;;;;0.00;0.00;;;7.90;99.90;;;;;;5048422;28;20598;-66
2022/01/09 12:20:07;;;;;;;0.00;0.00;;;8.00;99.90;;;;;;5033201;28;20474;-66
2022/01/09 12:22:39;;;;;;;0.00;0.00;;;8.30;99.90;;;;;;5031851;28;20760;-67
2022/01/09 12:25:25;;;;;;;0.00;0.00;;;8.30;99.90;;;;;;5033293;28;20095;-68
2022/01/09 12:28:10;;;;;;;0.00;0.00;;;8.30;99.90;;;;;;5033059;28;20030;-68
2022/01/09 12:30:40;;;;;;;0.05;0.05;;;8.90;99.90;;;;;;5015971;28;20041;-67
2022/01/09 12:33:09;;;;;;;0.00;0.00;;;8.70;99.90;;;;;;5032695;28;20031;-66
2022/01/09 12:35:38;;;;;;;0.80;0.80;;;8.30;99.90;;;;;;5031049;28;20048;-66
2022/01/09 12:38:05;;;;;;;0.00;0.00;;;8.20;99.90;;;;;;5031068;28;20038;-66
2022/01/09 12:40:36;;;;;;;0.00;0.00;;;8.00;99.90;;;;;;5029580;28;20470;-66
2022/01/09 12:43:03;;;;;;;0.15;0.15;;;7.80;99.90;;;;;;5032437;28;20144;-67
2022/01/09 12:45:31;;;;;;;0.00;0.00;;;7.60;99.90;;;;;;5031176;28;20034;-66
2022/01/09 12:47:59;;;;;;;7.57;2.30;;;7.60;99.90;;;;;;5032455;28;20045;-67
2022/01/09 12:50:27;;;;;;;0.00;0.00;;;7.60;99.90;;;;;;5031006;28;20108;-66
2022/01/09 12:53:28;;;;;;;0.32;0.32;;;7.70;99.90;;;;;;5032328;28;20601;-66
2022/01/09 12:56:07;;;;;;;0.82;0.80;;;7.80;99.90;;;;;;5032246;28;20029;-66
2022/01/09 12:58:37;;;;;;;0.00;0.00;;;8.00;99.90;;;;;;5031976;28;20041;-67
2022/01/09 13:01:17;;;;;;;0.00;0.00;;;7.80;99.90;;;;;;5030693;28;20044;-66
2022/01/09 13:03:52;;;;;;;0.00;0.00;;;7.80;99.90;;;;;;5032221;28;20030;-66
2022/01/09 13:06:25;;;;;;;0.00;0.00;;;8.00;99.90;;;;;;5030686;28;20124;-67
2022/01/09 13:08:55;;;;;;;0.10;0.10;;;8.00;99.90;;;;;;5031848;28;20045;-66
2022/01/09 13:11:25;;;;;;;0.10;0.10;;;7.90;99.90;;;;;;5030709;28;20108;-67